Metar z pełnej godziny Komunikat METAR ze strony awiacja.imgw.pl Metar G00 EPRA METAR EPRA 231300Z 15007KT CAVOK 20/08 Q1012=